Time;durP1;ratioP1;P1;durP2;ratioP2;P2;SDS_P1;SDS_P2;PMS_P1;PMS_P2;Temp;Humidity;BMP_temperature;BMP_pressure;BME280_temperature;BME280_humidity;BME280_pressure;Samples;Min_cycle;Max_cycle;Signal;HPM_P1;HPM_P2
2021/03/10 00:01:40;;;;;;;18.77;9.08;;;;;;;-8.92;79.48;101763.84;1719724;83;20951;-46
2021/03/10 00:04:08;;;;;;;22.52;9.95;;;;;;;-8.98;79.71;101762.95;1719742;83;21424;-41
2021/03/10 00:06:35;;;;;;;25.57;9.43;;;;;;;-9.04;79.82;101763.72;1719713;83;21074;-39
2021/03/10 00:09:04;;;;;;;21.42;8.88;;;;;;;-9.09;80.18;101769.60;1719749;83;20976;-40
2021/03/10 00:11:34;;;;;;;20.82;8.65;;;;;;;-9.16;80.36;101764.84;1719681;83;20939;-41
2021/03/10 00:14:01;;;;;;;18.02;9.50;;;;;;;-9.21;80.79;101768.61;1719776;83;20904;-40
2021/03/10 00:16:29;;;;;;;23.27;9.78;;;;;;;-9.27;80.95;101764.81;1719791;83;21164;-42
2021/03/10 00:18:57;;;;;;;29.48;9.50;;;;;;;-9.30;81.07;101765.81;1719719;83;21564;-40
2021/03/10 00:21:24;;;;;;;20.12;9.38;;;;;;;-9.33;81.35;101763.05;1719666;83;20960;-43
2021/03/10 00:23:52;;;;;;;22.75;8.80;;;;;;;-9.34;81.61;101766.31;1719852;83;20955;-42
2021/03/10 00:26:20;;;;;;;20.05;8.83;;;;;;;-9.37;81.89;101767.32;1719792;83;21010;-41
2021/03/10 00:28:47;;;;;;;16.67;8.83;;;;;;;-9.40;82.12;101768.32;1719795;83;21401;-41
2021/03/10 00:31:15;;;;;;;19.12;9.08;;;;;;;-9.45;82.23;101767.06;1719666;83;20974;-41
2021/03/10 00:33:42;;;;;;;13.88;8.60;;;;;;;-9.54;82.25;101774.30;1719727;83;20943;-41
2021/03/10 00:36:11;;;;;;;19.20;9.43;;;;;;;-9.62;82.38;101771.89;1719250;83;21030;-40
2021/03/10 00:38:39;;;;;;;29.18;8.93;;;;;;;-9.70;82.47;101763.36;1719725;83;21014;-40
2021/03/10 00:41:07;;;;;;;22.62;9.13;;;;;;;-9.77;82.67;101763.95;1719656;82;21389;-40
2021/03/10 00:43:35;;;;;;;27.45;10.18;;;;;;;-9.83;82.83;101758.93;1719684;83;21010;-41
2021/03/10 00:46:03;;;;;;;17.98;9.23;;;;;;;-9.83;83.17;101760.19;1719763;83;20943;-42
2021/03/10 00:48:31;;;;;;;19.15;9.53;;;;;;;-9.82;83.50;101756.06;1719697;83;20943;-42
2021/03/10 00:50:58;;;;;;;22.13;8.98;;;;;;;-9.83;83.51;101758.93;1719759;83;20978;-40
2021/03/10 00:53:26;;;;;;;22.93;9.83;;;;;;;-9.89;83.52;101757.16;1692885;83;21173;-41
2021/03/10 00:55:53;;;;;;;19.62;8.63;;;;;;;-9.94;83.54;101754.64;1719791;83;20960;-41
2021/03/10 00:58:20;;;;;;;21.65;10.23;;;;;;;-10.00;83.64;101759.11;1719657;83;21081;-42
2021/03/10 01:00:48;;;;;;;16.77;9.13;;;;;;;-10.05;83.70;101751.58;1719718;83;21081;-42
2021/03/10 01:03:16;;;;;;;24.47;10.23;;;;;;;-10.10;83.85;101759.58;1707183;83;21031;-42
2021/03/10 01:05:45;;;;;;;18.65;8.73;;;;;;;-10.15;83.96;101750.80;1705871;84;21447;-42
2021/03/10 01:08:13;;;;;;;22.35;9.58;;;;;;;-10.18;84.03;101754.66;1706073;84;22350;-41
2021/03/10 01:10:40;;;;;;;20.37;9.78;;;;;;;-10.27;83.94;101744.72;1706208;84;21094;-41
2021/03/10 01:13:08;;;;;;;28.67;9.38;;;;;;;-10.33;84.04;101748.84;1706186;84;21047;-39
2021/03/10 01:15:36;;;;;;;33.35;8.68;;;;;;;-10.36;84.25;101751.44;1706145;84;21023;-40
2021/03/10 01:18:03;;;;;;;26.90;9.78;;;;;;;-10.38;84.46;101747.53;1706239;84;21280;-41
2021/03/10 01:20:31;;;;;;;54.15;10.32;;;;;;;-10.42;84.54;101743.94;1706150;83;20984;-41
2021/03/10 01:22:59;;;;;;;57.58;10.38;;;;;;;-10.46;84.62;101749.44;1706166;84;21055;-42
2021/03/10 01:25:27;;;;;;;49.48;10.03;;;;;;;-10.49;84.75;101750.78;1706155;84;21841;-41
2021/03/10 01:27:54;;;;;;;26.68;9.60;;;;;;;-10.51;84.79;101751.02;1706263;83;20888;-42
2021/03/10 01:30:23;;;;;;;45.03;10.35;;;;;;;-10.54;84.93;101748.76;1706281;84;21385;-39
2021/03/10 01:32:51;;;;;;;41.23;10.10;;;;;;;-10.52;85.12;101748.01;1706219;84;20920;-41
2021/03/10 01:35:19;;;;;;;35.03;10.88;;;;;;;-10.52;85.26;101751.38;1706186;84;21023;-41
2021/03/10 01:37:46;;;;;;;63.70;10.75;;;;;;;-10.52;85.33;101754.27;1706148;84;21050;-40
2021/03/10 01:40:16;;;;;;;137.68;15.23;;;;;;;-10.54;85.32;101749.11;1706196;84;20955;-39
2021/03/10 01:42:44;;;;;;;103.12;10.38;;;;;;;-10.55;85.33;101754.52;1706143;82;21454;-40
2021/03/10 01:45:13;;;;;;;122.45;11.43;;;;;;;-10.57;85.26;101753.86;1706069;82;21920;-40
2021/03/10 01:47:44;;;;;;;118.77;12.25;;;;;;;-10.61;85.26;101756.48;1706268;83;21640;-40
2021/03/10 01:50:17;;;;;;;120.82;11.80;;;;;;;-10.62;85.25;101756.33;1706188;84;20960;-40
2021/03/10 01:52:46;;;;;;;156.18;14.40;;;;;;;-10.63;85.29;101758.33;1706192;83;21055;-40
2021/03/10 01:55:14;;;;;;;273.70;18.82;;;;;;;-10.65;85.42;101767.33;1706154;84;21372;-40
2021/03/10 01:57:42;;;;;;;241.23;17.40;;;;;;;-10.69;85.54;101767.06;1706080;83;21015;-40
2021/03/10 02:00:11;;;;;;;172.37;14.25;;;;;;;-10.70;85.73;101767.81;1706129;84;20908;-40
2021/03/10 02:02:42;;;;;;;277.77;17.27;;;;;;;-10.70;85.83;101774.06;1710400;83;20932;-40
2021/03/10 02:05:14;;;;;;;354.35;24.45;;;;;;;-10.70;85.92;101771.56;1714018;83;21185;-40
2021/03/10 02:08:22;;;;;;;408.68;25.62;;;;;;;-10.69;86.04;101774.58;1685925;83;21378;-39
2021/03/10 02:11:13;;;;;;;340.80;21.50;;;;;;;-10.70;86.11;101774.42;1714058;83;21050;-41
2021/03/10 02:14:08;;;;;;;223.80;17.32;;;;;;;-10.70;86.22;101775.31;1714074;83;21244;-39
2021/03/10 02:16:46;;;;;;;49.33;10.80;;;;;;;-10.73;86.20;101775.05;1714007;83;21026;-40
2021/03/10 02:19:52;;;;;;;94.50;12.18;;;;;;;-10.77;86.31;101769.63;1714075;83;20960;-40
2021/03/10 02:22:48;;;;;;;123.40;14.25;;;;;;;-10.77;86.52;101772.13;1667164;83;21369;-39
2021/03/10 02:25:44;;;;;;;202.15;15.43;;;;;;;-10.77;86.62;101774.24;1714358;83;26578;-40
2021/03/10 02:28:11;;;;;;;271.48;21.00;;;;;;;-10.75;86.66;101779.02;1714232;83;20959;-40
2021/03/10 02:30:42;;;;;;;152.05;14.30;;;;;;;-10.79;86.45;101781.98;1714167;83;21039;-41
2021/03/10 02:33:19;;;;;;;221.15;15.05;;;;;;;-10.84;86.31;101780.34;1714311;83;21560;-40
2021/03/10 02:35:50;;;;;;;191.75;15.23;;;;;;;-10.91;86.23;101780.91;1714238;82;21578;-40
2021/03/10 02:38:20;;;;;;;261.75;20.62;;;;;;;-10.98;86.20;101781.62;1714191;83;20991;-41
2021/03/10 02:40:51;;;;;;;271.13;17.10;;;;;;;-11.00;86.24;101788.08;1714179;82;21413;-41
2021/03/10 02:43:20;;;;;;;272.80;19.82;;;;;;;-11.02;86.26;101787.06;1714192;83;20951;-40
2021/03/10 02:45:48;;;;;;;284.10;20.00;;;;;;;-11.07;86.23;101790.77;1714207;83;21031;-41
2021/03/10 02:48:15;;;;;;;200.40;18.07;;;;;;;-11.10;86.21;101794.25;1714211;83;21230;-40
2021/03/10 02:50:44;;;;;;;266.38;19.37;;;;;;;-11.14;86.22;101794.72;1686564;83;20975;-42
2021/03/10 02:53:11;;;;;;;228.20;20.52;;;;;;;-11.17;86.24;101799.06;1714222;83;21007;-41
2021/03/10 02:55:40;;;;;;;235.75;19.60;;;;;;;-11.18;86.31;101802.70;1714144;83;21047;-41
2021/03/10 02:58:11;;;;;;;215.00;22.62;;;;;;;-11.20;86.41;101807.93;1714204;83;21066;-41
2021/03/10 03:00:39;;;;;;;188.95;16.48;;;;;;;-11.21;86.55;101809.92;1714130;83;21344;-40
2021/03/10 03:03:07;;;;;;;127.20;15.53;;;;;;;-11.20;86.82;101811.30;1709441;83;21004;-41
2021/03/10 03:05:35;;;;;;;126.80;14.28;;;;;;;-11.19;86.93;101813.05;1706294;83;21074;-40
2021/03/10 03:08:04;;;;;;;93.55;12.15;;;;;;;-11.22;86.76;101811.91;1706242;84;20960;-40
2021/03/10 03:10:38;;;;;;;68.70;11.50;;;;;;;-11.27;86.73;101814.84;1706284;82;21039;-39
2021/03/10 03:13:09;;;;;;;53.70;10.13;;;;;;;-11.26;86.89;101812.86;1706040;83;21322;-42
2021/03/10 03:15:37;;;;;;;36.28;9.63;;;;;;;-11.23;86.85;101810.16;1705547;83;21047;-42
2021/03/10 03:18:05;;;;;;;73.60;11.40;;;;;;;-11.28;86.70;101813.09;1706276;84;21140;-40
2021/03/10 03:20:34;;;;;;;55.88;11.25;;;;;;;-11.32;86.72;101812.30;1706221;83;21067;-43
2021/03/10 03:23:04;;;;;;;42.98;11.25;;;;;;;-11.31;86.87;101813.20;1706207;84;20935;-42
2021/03/10 03:25:37;;;;;;;53.92;11.55;;;;;;;-11.31;86.88;101812.81;1706348;83;21537;-41
2021/03/10 03:28:06;;;;;;;45.08;12.78;;;;;;;-11.33;86.77;101811.80;1706295;84;21655;-42
2021/03/10 03:30:36;;;;;;;71.50;12.63;;;;;;;-11.36;86.83;101809.02;1706355;84;21541;-41
2021/03/10 03:33:12;;;;;;;73.78;11.15;;;;;;;-11.31;87.11;101813.20;1706303;84;21490;-41
2021/03/10 03:35:41;;;;;;;42.70;11.85;;;;;;;-11.27;87.25;101813.59;1706326;84;21556;-43
2021/03/10 03:38:09;;;;;;;57.05;12.10;;;;;;;-11.25;87.42;101812.50;1706190;84;21212;-45
2021/03/10 03:40:37;;;;;;;46.83;11.22;;;;;;;-11.24;87.39;101813.01;1706235;82;20976;-43
2021/03/10 03:43:09;;;;;;;42.78;11.63;;;;;;;-11.22;87.43;101810.66;1706250;84;21011;-41
2021/03/10 03:45:37;;;;;;;34.73;11.40;;;;;;;-11.25;87.33;101816.25;1706308;84;21063;-41
2021/03/10 03:48:07;;;;;;;44.13;10.58;;;;;;;-11.27;87.34;101818.59;1706252;84;21469;-41
2021/03/10 03:50:34;;;;;;;64.80;12.07;;;;;;;-11.28;87.42;101815.59;1706335;84;21438;-41
2021/03/10 03:53:02;;;;;;;74.45;13.08;;;;;;;-11.27;87.35;101822.34;1706218;83;21400;-39
2021/03/10 03:55:29;;;;;;;124.53;14.47;;;;;;;-11.28;87.36;101821.84;1706302;84;21031;-41
2021/03/10 03:57:57;;;;;;;154.70;14.38;;;;;;;-11.27;87.50;101819.84;1706241;83;21153;-40
2021/03/10 04:00:26;;;;;;;135.12;15.30;;;;;;;-11.24;87.49;101814.61;1706222;84;21095;-45
2021/03/10 04:02:53;;;;;;;162.60;15.83;;;;;;;-11.25;87.45;101816.25;1706181;83;21389;-40
2021/03/10 04:05:22;;;;;;;180.87;15.83;;;;;;;-11.21;87.47;101819.92;1706222;84;20956;-42
2021/03/10 04:07:57;;;;;;;124.40;13.32;;;;;;;-11.24;87.40;101817.12;1703690;84;21105;-41
2021/03/10 04:10:30;;;;;;;107.83;14.35;;;;;;;-11.27;87.33;101819.84;1706206;84;22316;-40
2021/03/10 04:12:58;;;;;;;99.05;13.58;;;;;;;-11.27;87.38;101817.73;1706331;84;21462;-39
2021/03/10 04:15:27;;;;;;;47.40;11.93;;;;;;;-11.30;87.32;101815.82;1706308;83;21615;-41
2021/03/10 04:17:55;;;;;;;47.80;11.15;;;;;;;-11.32;87.32;101827.69;1706203;83;20948;-40
2021/03/10 04:20:23;;;;;;;53.35;11.60;;;;;;;-11.33;87.31;101824.30;1706265;83;20960;-40
2021/03/10 04:22:52;;;;;;;82.40;11.38;;;;;;;-11.34;87.33;101831.67;1706224;84;20967;-40
2021/03/10 04:25:21;;;;;;;66.10;13.00;;;;;;;-11.34;87.41;101826.67;1706187;84;21015;-39
2021/03/10 04:27:49;;;;;;;56.33;11.60;;;;;;;-11.27;87.60;101831.48;1706286;84;21213;-39
2021/03/10 04:30:18;;;;;;;59.50;11.53;;;;;;;-11.25;87.53;101831.26;1706224;84;21046;-41
2021/03/10 04:32:45;;;;;;;58.78;12.35;;;;;;;-11.21;87.53;101831.18;1706145;84;20972;-39
2021/03/10 04:35:14;;;;;;;53.98;10.90;;;;;;;-11.18;87.51;101826.06;1706195;84;20940;-40
2021/03/10 04:37:42;;;;;;;55.20;12.10;;;;;;;-11.16;87.43;101832.48;1706257;84;20944;-39
2021/03/10 04:40:12;;;;;;;60.90;12.15;;;;;;;-11.14;87.42;101830.61;1706253;84;21392;-40
2021/03/10 04:42:40;;;;;;;32.05;10.68;;;;;;;-11.10;87.52;101829.27;1706111;82;21138;-40
2021/03/10 04:45:10;;;;;;;58.48;10.25;;;;;;;-11.05;87.56;101826.81;1706132;84;20924;-41
2021/03/10 04:47:37;;;;;;;45.25;13.53;;;;;;;-11.00;87.54;101832.25;1706172;83;20972;-40
2021/03/10 04:50:07;;;;;;;33.25;15.25;;;;;;;-10.92;87.62;101831.31;1706127;84;20900;-41
2021/03/10 04:52:35;;;;;;;74.35;16.52;;;;;;;-10.75;87.95;101831.57;1706226;84;21344;-45
2021/03/10 04:55:07;;;;;;;44.38;17.55;;;;;;;-10.54;88.16;101826.73;1706181;84;20979;-41
2021/03/10 04:57:34;;;;;;;47.75;19.30;;;;;;;-10.29;88.18;101831.37;1706167;84;20948;-42
2021/03/10 05:00:05;;;;;;;46.35;17.67;;;;;;;-10.00;88.20;101834.28;1706195;84;21015;-42
2021/03/10 05:02:34;;;;;;;53.95;15.35;;;;;;;-9.70;88.14;101833.94;1706163;83;20983;-44
2021/03/10 05:05:04;;;;;;;52.65;13.40;;;;;;;-9.35;88.25;101838.92;1706131;83;21208;-41
2021/03/10 05:07:31;;;;;;;71.67;15.85;;;;;;;-9.03;88.26;101838.25;1706170;83;21062;-42
2021/03/10 05:09:59;;;;;;;82.88;15.78;;;;;;;-8.69;88.41;101841.92;1706210;83;21086;-41
2021/03/10 05:12:30;;;;;;;66.17;13.72;;;;;;;-8.35;88.56;101835.31;1706171;84;21004;-40
2021/03/10 05:14:59;;;;;;;66.30;13.35;;;;;;;-8.12;88.27;101843.43;1706239;84;21007;-41
2021/03/10 05:17:27;;;;;;;49.25;11.93;;;;;;;-7.92;88.08;101841.62;1706271;84;21605;-41
2021/03/10 05:19:58;;;;;;;59.30;13.10;;;;;;;-7.76;87.91;101839.93;1706116;84;20956;-41
2021/03/10 05:22:26;;;;;;;56.92;13.20;;;;;;;-7.62;87.85;101841.90;1706183;84;21043;-40
2021/03/10 05:24:54;;;;;;;74.60;11.73;;;;;;;-7.56;87.79;101841.11;1706286;84;21505;-40
2021/03/10 05:27:22;;;;;;;37.75;11.68;;;;;;;-7.52;87.61;101843.09;1706179;84;20897;-40
2021/03/10 05:29:49;;;;;;;48.05;11.25;;;;;;;-7.50;87.45;101846.61;1706199;82;21615;-40
2021/03/10 05:32:18;;;;;;;26.77;11.90;;;;;;;-7.48;87.32;101849.25;1706139;84;21007;-40
2021/03/10 05:34:46;;;;;;;44.13;11.50;;;;;;;-7.46;87.24;101850.25;1706201;84;21062;-40
2021/03/10 05:37:13;;;;;;;38.95;12.63;;;;;;;-7.44;87.33;101856.27;1706185;84;21035;-41
2021/03/10 05:39:41;;;;;;;38.35;10.20;;;;;;;-7.43;87.34;101855.52;1706257;84;21008;-40
2021/03/10 05:42:09;;;;;;;29.10;9.48;;;;;;;-7.39;87.20;101856.64;1706155;82;21380;-40
2021/03/10 05:44:36;;;;;;;27.48;10.28;;;;;;;-7.41;86.95;101861.54;1706125;84;21047;-41
2021/03/10 05:47:06;;;;;;;20.43;9.20;;;;;;;-7.40;86.84;101864.55;1706189;84;20952;-41
2021/03/10 05:49:36;;;;;;;34.08;9.98;;;;;;;-7.36;86.78;101861.91;1706168;84;21461;-41
2021/03/10 05:52:05;;;;;;;27.32;9.08;;;;;;;-7.31;86.56;101866.91;1706344;83;20943;-39
2021/03/10 05:54:35;;;;;;;33.80;10.08;;;;;;;-7.28;86.27;101870.91;1706214;84;22301;-40
2021/03/10 05:57:06;;;;;;;36.20;10.45;;;;;;;-7.22;86.17;101877.66;1705913;83;21091;-40
2021/03/10 05:59:33;;;;;;;23.83;9.28;;;;;;;-7.14;86.08;101877.39;1706268;83;21643;-40
2021/03/10 06:02:01;;;;;;;14.90;8.45;;;;;;;-7.04;85.91;101878.98;1706127;84;20953;-41
2021/03/10 06:04:41;;;;;;;24.30;9.53;;;;;;;-6.96;85.81;101874.99;1706351;83;21066;-40
2021/03/10 06:07:23;;;;;;;13.32;9.00;;;;;;;-6.85;85.49;101878.32;1706146;84;22139;-41
2021/03/10 06:10:00;;;;;;;17.55;8.73;;;;;;;-6.73;85.23;101880.02;1706063;84;20952;-41
2021/03/10 06:12:43;;;;;;;18.85;9.58;;;;;;;-6.64;84.94;101885.38;1706232;84;21635;-41
2021/03/10 06:15:13;;;;;;;20.65;8.83;;;;;;;-6.51;84.89;101892.56;1706137;83;21062;-41
2021/03/10 06:20:37;;;;;;;12.35;7.75;;;;;;;-6.22;84.24;101886.27;1776835;79;22766;-42
2021/03/10 06:23:10;;;;;;;16.10;8.78;;;;;;;-6.19;83.44;101889.41;1749442;80;20943;-41
2021/03/10 06:25:38;;;;;;;21.37;7.72;;;;;;;-6.15;82.53;101896.42;1749049;82;21405;-40
2021/03/10 06:28:05;;;;;;;10.38;6.97;;;;;;;-6.09;82.14;101897.75;1749410;82;20939;-42
2021/03/10 06:30:43;;;;;;;16.55;7.72;;;;;;;-6.00;81.67;101900.40;1749442;82;21045;-41
2021/03/10 06:33:22;;;;;;;12.13;6.53;;;;;;;-5.90;81.22;101897.79;1749518;82;21631;-41
2021/03/10 06:35:50;;;;;;;15.58;7.65;;;;;;;-5.79;80.73;101906.12;1749465;82;21067;-41
2021/03/10 06:38:19;;;;;;;17.20;8.50;;;;;;;-5.70;79.55;101906.77;1749433;81;21263;-42
2021/03/10 06:40:53;;;;;;;15.20;6.80;;;;;;;-5.60;79.52;101907.05;1747132;82;20959;-41
2021/03/10 06:43:23;;;;;;;11.28;6.75;;;;;;;-5.50;78.37;101902.27;1719594;83;20971;-41
2021/03/10 06:45:51;;;;;;;18.40;6.83;;;;;;;-5.35;78.32;101908.36;1717912;83;21060;-41
2021/03/10 06:48:22;;;;;;;13.72;7.05;;;;;;;-5.23;77.92;101910.87;1719574;83;21029;-40
2021/03/10 06:50:51;;;;;;;21.17;7.97;;;;;;;-5.14;76.95;101904.72;1719574;83;21571;-41
2021/03/10 06:53:21;;;;;;;13.60;7.60;;;;;;;-5.03;75.86;101913.89;1719560;83;21034;-42
2021/03/10 06:55:48;;;;;;;17.37;7.58;;;;;;;-4.94;76.07;101905.67;1669530;83;21082;-42
2021/03/10 06:58:22;;;;;;;21.62;7.83;;;;;;;-4.86;75.46;101916.70;1719539;83;21018;-41
2021/03/10 07:01:01;;;;;;;10.13;5.33;;;;;;;-4.82;74.51;101914.47;1719580;83;21018;-41
2021/03/10 07:03:29;;;;;;;6.97;4.25;;;;;;;-4.74;73.07;101907.41;1719448;83;21216;-41
2021/03/10 07:05:57;;;;;;;7.70;5.05;;;;;;;-4.59;70.99;101918.08;1719500;83;21492;-40
2021/03/10 07:08:25;;;;;;;8.05;3.70;;;;;;;-4.51;70.83;101911.87;1719559;83;21349;-40
2021/03/10 07:10:53;;;;;;;7.40;4.42;;;;;;;-4.36;70.37;101909.48;1719650;83;21571;-40
2021/03/10 07:13:20;;;;;;;8.45;5.17;;;;;;;-4.20;69.19;101905.03;1719627;82;20959;-41
2021/03/10 07:15:51;;;;;;;10.08;4.67;;;;;;;-4.00;69.38;101909.25;1719591;83;21898;-40
2021/03/10 07:18:20;;;;;;;8.58;4.28;;;;;;;-3.88;67.44;101907.52;1719565;83;21587;-41
2021/03/10 07:20:48;;;;;;;7.25;4.10;;;;;;;-3.73;65.52;101908.88;1707831;83;21500;-41
2021/03/10 07:23:16;;;;;;;10.58;4.70;;;;;;;-3.65;65.00;101903.04;1706771;84;21011;-41
2021/03/10 07:25:44;;;;;;;12.98;8.85;;;;;;;-3.57;64.14;101898.05;1706832;84;20944;-40
2021/03/10 07:28:20;;;;;;;11.70;4.87;;;;;;;-3.43;63.02;101898.02;1706786;84;21198;-41
2021/03/10 07:30:49;;;;;;;9.48;5.05;;;;;;;-3.24;62.75;101898.38;1706450;83;21099;-40
2021/03/10 07:33:18;;;;;;;4.22;3.00;;;;;;;-3.05;62.45;101902.91;1706262;84;21007;-40
2021/03/10 07:35:55;;;;;;;6.03;3.40;;;;;;;-2.90;61.67;101897.91;1706311;84;21501;-40
2021/03/10 07:38:25;;;;;;;20.92;3.77;;;;;;;-2.75;59.90;101894.14;1706324;84;21575;-40
2021/03/10 07:41:00;;;;;;;3.42;2.77;;;;;;;-2.77;56.80;101896.98;1706233;82;21346;-41
2021/03/10 07:43:46;;;;;;;2.92;2.62;;;;;;;-2.68;57.44;101902.95;1706361;84;20999;-41
2021/03/10 07:46:23;;;;;;;11.50;3.67;;;;;;;-2.61;55.57;101901.29;1706454;84;20944;-40
2021/03/10 07:48:52;;;;;;;7.03;3.10;;;;;;;-2.49;56.71;101899.86;1706183;84;20986;-41
2021/03/10 07:51:35;;;;;;;9.10;3.20;;;;;;;-2.40;56.13;101899.53;1706341;84;21058;-41
2021/03/10 07:54:16;;;;;;;5.37;2.92;;;;;;;-2.40;53.17;101897.37;1706296;83;22150;-41
2021/03/10 07:56:43;;;;;;;8.78;3.25;;;;;;;-2.24;53.25;101897.47;1688390;84;21027;-42
2021/03/10 07:59:14;;;;;;;7.78;3.00;;;;;;;-1.98;52.65;101890.45;1706253;84;21039;-41
2021/03/10 08:01:43;;;;;;;3.50;2.75;;;;;;;-1.75;50.25;101885.38;1706146;83;21015;-41
2021/03/10 08:04:17;;;;;;;7.80;2.80;;;;;;;-1.72;49.78;101886.33;1706265;84;21023;-40
2021/03/10 08:06:50;;;;;;;3.25;2.20;;;;;;;-1.62;50.55;101884.79;1706346;84;21512;-40
2021/03/10 08:09:19;;;;;;;4.25;2.33;;;;;;;-1.38;48.32;101884.37;1706318;84;21556;-41
2021/03/10 08:12:08;;;;;;;7.75;2.70;;;;;;;-1.35;48.08;101885.80;1706263;84;21035;-41
2021/03/10 08:14:42;;;;;;;5.55;1.95;;;;;;;-1.47;47.34;101889.41;1706241;83;20964;-43
2021/03/10 08:17:22;;;;;;;4.78;2.40;;;;;;;-1.54;48.00;101883.91;1706247;83;20967;-41
2021/03/10 08:19:59;;;;;;;5.35;2.42;;;;;;;-1.46;47.49;101886.48;1711675;83;21217;-41
2021/03/10 08:22:29;;;;;;;2.75;1.82;;;;;;;-1.21;45.61;101882.72;1719794;83;21654;-41
2021/03/10 08:24:58;;;;;;;3.65;2.37;;;;;;;-0.88;46.10;101872.55;1719777;83;20967;-42
2021/03/10 08:27:36;;;;;;;6.03;2.70;;;;;;;-0.81;42.44;101869.51;1719741;83;21042;-42
2021/03/10 08:30:08;;;;;;;3.83;3.27;;;;;;;-0.93;43.96;101873.57;1719818;83;21066;-42
2021/03/10 08:32:37;;;;;;;4.67;3.08;;;;;;;-1.03;43.00;101870.09;1719779;83;21381;-41
2021/03/10 08:35:16;;;;;;;5.15;3.12;;;;;;;-1.02;44.20;101872.69;1719714;83;20943;-42
2021/03/10 08:37:55;;;;;;;3.25;2.60;;;;;;;-0.92;43.36;101868.10;1719809;83;21153;-44
2021/03/10 08:40:25;;;;;;;49.77;21.12;;;;;;;-0.79;42.02;101864.09;1719730;83;21035;-41
2021/03/10 08:42:58;;;;;;;3.62;2.40;;;;;;;-0.81;43.21;101861.88;1719798;82;21567;-41
2021/03/10 08:45:29;;;;;;;4.72;2.42;;;;;;;-0.45;39.87;101870.90;1719780;83;21391;-43
2021/03/10 08:48:06;;;;;;;7.50;2.00;;;;;;;-0.38;39.38;101866.99;1719754;83;20951;-40
2021/03/10 08:50:44;;;;;;;3.05;2.55;;;;;;;-0.38;39.35;101864.45;1692924;83;21484;-42
2021/03/10 08:53:15;;;;;;;3.65;2.65;;;;;;;-0.57;39.95;101865.60;1719726;83;20971;-44
2021/03/10 08:55:44;;;;;;;3.90;2.37;;;;;;;-0.43;39.59;101870.95;1719591;83;20983;-41
2021/03/10 08:58:14;;;;;;;4.17;2.50;;;;;;;-0.38;39.96;101863.56;1719798;83;21360;-42
2021/03/10 09:00:43;;;;;;;7.90;3.08;;;;;;;-0.21;38.42;101866.92;1719636;83;21034;-42
2021/03/10 09:03:18;;;;;;;4.60;2.80;;;;;;;-0.10;38.36;101863.63;1719717;83;20998;-41
2021/03/10 09:05:51;;;;;;;10.68;2.77;;;;;;;-0.09;38.50;101862.44;1719798;83;21053;-43
2021/03/10 09:08:24;;;;;;;7.97;2.62;;;;;;;-0.51;40.31;101861.67;1719762;83;20999;-42
2021/03/10 09:10:55;;;;;;;6.45;2.85;;;;;;;-0.62;39.35;101860.27;1719588;83;21421;-41
2021/03/10 09:13:40;;;;;;;7.87;2.35;;;;;;;-0.36;40.37;101854.33;1717803;82;20987;-43
2021/03/10 09:16:10;;;;;;;9.53;2.90;;;;;;;0.08;40.89;101859.41;1719717;83;20939;-41
2021/03/10 09:18:39;;;;;;;9.53;3.37;;;;;;;0.47;39.45;101854.83;1719210;83;21030;-42
2021/03/10 09:21:07;;;;;;;17.77;2.70;;;;;;;0.61;37.78;101854.17;1719676;83;20892;-43
2021/03/10 09:23:37;;;;;;;8.75;2.58;;;;;;;0.64;39.09;101853.45;1719277;83;20992;-43
2021/03/10 09:26:06;;;;;;;5.62;2.80;;;;;;;0.63;38.30;101860.59;1719679;83;21093;-42
2021/03/10 09:28:36;;;;;;;6.97;2.50;;;;;;;0.43;38.30;101857.63;1719478;82;21014;-40
2021/03/10 09:31:15;;;;;;;13.05;3.08;;;;;;;0.48;38.68;101861.66;1718004;83;21054;-42
2021/03/10 09:33:48;;;;;;;3.75;2.62;;;;;;;0.71;38.67;101843.56;1718452;83;21022;-43
2021/03/10 09:36:25;;;;;;;3.98;2.67;;;;;;;0.96;35.96;101852.72;1719411;83;21380;-42
2021/03/10 09:38:55;;;;;;;7.42;3.02;;;;;;;0.97;36.47;101838.73;1719256;82;21038;-43
2021/03/10 09:41:36;;;;;;;5.67;2.95;;;;;;;0.72;36.03;101849.55;1718110;82;20990;-43
2021/03/10 09:44:08;;;;;;;4.00;2.72;;;;;;;0.38;36.14;101846.73;1719784;83;21022;-41
2021/03/10 09:46:43;;;;;;;5.20;2.20;;;;;;;0.22;37.14;101854.97;1719874;83;21674;-42
2021/03/10 09:49:13;;;;;;;6.85;2.30;;;;;;;0.46;37.79;101858.17;1719584;83;21215;-42
2021/03/10 09:51:46;;;;;;;22.65;3.05;;;;;;;0.75;36.73;101852.23;1719748;83;21595;-42
2021/03/10 09:54:16;;;;;;;2.20;2.00;;;;;;;0.79;36.77;101849.01;1719834;83;21630;-42
2021/03/10 09:56:51;;;;;;;5.40;2.55;;;;;;;0.71;36.92;101851.22;1719301;83;21121;-44
2021/03/10 09:59:33;;;;;;;6.20;2.12;;;;;;;1.04;35.62;101840.30;1719788;83;21113;-43
2021/03/10 10:02:04;;;;;;;4.17;2.17;;;;;;;0.91;35.23;101849.09;1718199;83;21451;-42
2021/03/10 10:04:34;;;;;;;9.30;2.08;;;;;;;0.93;35.27;101842.39;1719162;82;20998;-42
2021/03/10 10:07:06;;;;;;;2.17;1.98;;;;;;;1.07;35.44;101834.05;1719630;83;20950;-44
2021/03/10 10:09:35;;;;;;;4.92;1.90;;;;;;;1.26;35.28;101840.80;1718117;83;20960;-43
2021/03/10 10:12:08;;;;;;;3.22;2.25;;;;;;;1.32;34.61;101834.67;1719475;83;20967;-43
2021/03/10 10:14:50;;;;;;;9.90;2.15;;;;;;;1.05;34.69;101831.42;1719134;83;21410;-42
2021/03/10 10:17:18;;;;;;;5.42;2.10;;;;;;;1.13;35.53;101830.48;1719636;83;20963;-44
2021/03/10 10:19:46;;;;;;;11.80;3.20;;;;;;;1.46;34.92;101828.86;1718146;83;21054;-43
2021/03/10 10:22:14;;;;;;;10.03;2.62;;;;;;;1.30;33.92;101831.19;1706134;83;21158;-43
2021/03/10 10:24:42;;;;;;;12.58;3.30;;;;;;;1.39;36.17;101826.48;1706137;84;20979;-44
2021/03/10 10:27:10;;;;;;;15.28;3.35;;;;;;;1.58;37.56;101829.38;1706166;84;21394;-41
2021/03/10 10:29:40;;;;;;;13.38;3.25;;;;;;;1.91;36.50;101823.39;1706085;83;21595;-43
2021/03/10 10:32:07;;;;;;;8.05;2.70;;;;;;;2.03;36.78;101822.61;1706198;84;20993;-43
2021/03/10 10:34:36;;;;;;;4.20;2.05;;;;;;;2.17;34.55;101815.48;1706117;84;20976;-43
2021/03/10 10:37:05;;;;;;;4.70;2.65;;;;;;;2.23;33.99;101813.53;1706138;84;20960;-41
2021/03/10 10:39:47;;;;;;;7.10;2.35;;;;;;;2.28;32.36;101812.05;1706012;83;21355;-43
2021/03/10 10:42:18;;;;;;;5.95;2.27;;;;;;;1.84;32.74;101810.39;1706041;82;21043;-42
2021/03/10 10:44:47;;;;;;;4.28;2.40;;;;;;;1.55;31.99;101813.94;1706201;82;21683;-42
2021/03/10 10:47:18;;;;;;;13.88;2.83;;;;;;;1.20;33.22;101813.76;1705897;82;21019;-44
2021/03/10 10:49:49;;;;;;;6.35;2.65;;;;;;;1.20;34.46;101815.03;1705875;84;20951;-44
2021/03/10 10:52:19;;;;;;;4.15;2.67;;;;;;;1.35;33.92;101809.27;1706166;84;21377;-44
2021/03/10 10:54:49;;;;;;;8.15;1.98;;;;;;;1.20;33.82;101806.96;1706124;83;21007;-41
2021/03/10 10:57:17;;;;;;;4.50;2.47;;;;;;;1.14;34.81;101801.61;1706159;83;21006;-42
2021/03/10 10:59:47;;;;;;;2.65;1.95;;;;;;;1.40;32.28;101801.43;1705792;83;21078;-43
2021/03/10 11:02:17;;;;;;;182.40;10.53;;;;;;;1.25;32.31;101795.68;1705995;84;20936;-41
2021/03/10 11:04:46;;;;;;;36.85;4.33;;;;;;;0.90;32.52;101793.80;1705863;83;21364;-42
2021/03/10 11:07:17;;;;;;;29.45;2.77;;;;;;;0.90;33.77;101787.44;1706224;84;20923;-41
2021/03/10 11:09:46;;;;;;;7.37;3.45;;;;;;;1.21;34.83;101786.16;1706311;84;21023;-42
2021/03/10 11:12:15;;;;;;;13.25;2.80;;;;;;;1.74;35.36;101790.82;1706310;84;20900;-43
2021/03/10 11:14:45;;;;;;;8.60;3.00;;;;;;;1.89;34.61;101793.95;1705812;83;20936;-42
2021/03/10 11:17:14;;;;;;;5.75;2.75;;;;;;;1.95;34.38;101786.94;1705012;83;21386;-42
2021/03/10 11:19:44;;;;;;;5.75;2.90;;;;;;;1.74;35.52;101786.56;1705780;84;20976;-44
2021/03/10 11:22:13;;;;;;;4.62;2.60;;;;;;;1.98;33.08;101776.45;1706267;84;21023;-43
2021/03/10 11:24:41;;;;;;;10.32;2.72;;;;;;;1.76;34.02;101778.55;1706243;84;20916;-43
2021/03/10 11:27:10;;;;;;;5.08;2.60;;;;;;;1.71;33.80;101774.56;1706247;84;21086;-43
2021/03/10 11:29:38;;;;;;;2.30;2.10;;;;;;;1.80;33.87;101773.17;1706269;84;21411;-43
2021/03/10 11:32:08;;;;;;;8.65;2.92;;;;;;;1.71;34.00;101769.47;1706203;83;20991;-42
2021/03/10 11:34:37;;;;;;;5.15;2.90;;;;;;;1.84;33.66;101764.81;1706253;84;20988;-42